createdAt,value
2016-11-15T00:00:41.437Z,2.97
2016-11-15T00:01:41.771Z,2.99
2016-11-15T00:02:42.631Z,3
2016-11-15T00:03:42.599Z,3.05
2016-11-15T00:04:41.913Z,2.93
2016-11-15T00:05:41.923Z,2.9
2016-11-15T00:06:42.846Z,2.89
2016-11-15T00:07:41.766Z,3.05
2016-11-15T00:08:41.936Z,3
2016-11-15T00:09:41.958Z,3.05
2016-11-15T00:10:42.051Z,3.08
2016-11-15T00:11:41.960Z,3
2016-11-15T00:12:41.836Z,3.02
2016-11-15T00:13:41.617Z,3
2016-11-15T00:14:41.752Z,2.99
2016-11-15T00:15:41.493Z,3.08
2016-11-15T00:16:42.112Z,2.99
2016-11-15T00:17:41.674Z,2.95
2016-11-15T00:18:40.216Z,3.08
2016-11-15T00:19:41.918Z,2.96
2016-11-15T00:20:41.466Z,3.08
2016-11-15T00:21:41.163Z,3.03
2016-11-15T00:22:40.714Z,3.05
2016-11-15T00:23:41.574Z,3.11
2016-11-15T00:24:40.716Z,3.03
2016-11-15T00:25:40.627Z,3.13
2016-11-15T00:26:41.344Z,3.17
2016-11-15T00:27:40.161Z,3.17
2016-11-15T00:28:55.438Z,3.13
2016-11-15T00:29:40.219Z,3.06
2016-11-15T00:30:41.298Z,3
2016-11-15T00:31:41.403Z,3.11
2016-11-15T00:32:40.474Z,3.11
2016-11-15T00:33:40.665Z,3.14
2016-11-15T00:34:41.934Z,3.08
2016-11-15T00:35:41.170Z,3.13
2016-11-15T00:36:40.810Z,3.14
2016-11-15T00:37:41.691Z,3.17
2016-11-15T00:38:41.356Z,3.17
2016-11-15T00:39:39.985Z,3.13
2016-11-15T00:40:40.559Z,3.15
2016-11-15T00:41:40.645Z,3.11
2016-11-15T00:42:39.375Z,3.17
2016-11-15T00:43:39.336Z,3.17
2016-11-15T00:44:39.289Z,3.15
2016-11-15T00:45:39.550Z,3.17
2016-11-15T00:46:39.506Z,3.2
2016-11-15T00:47:39.469Z,3.15
2016-11-15T00:48:39.433Z,3.2
2016-11-15T00:49:39.382Z,3.14
2016-11-15T00:50:39.342Z,3.14
2016-11-15T00:51:38.997Z,3.21
2016-11-15T00:52:38.955Z,3.2
2016-11-15T00:53:39.222Z,3.29
2016-11-15T00:54:39.176Z,3.18
2016-11-15T00:55:38.833Z,3.17
2016-11-15T00:56:39.096Z,3.26
2016-11-15T00:57:38.754Z,3.28
2016-11-15T00:58:38.707Z,3.23
2016-11-15T00:59:38.665Z,3.18
2016-11-15T01:00:38.939Z,3.24
2016-11-15T01:01:38.889Z,3.23
2016-11-15T01:02:38.847Z,3.23
2016-11-15T01:03:38.803Z,3.24
2016-11-15T01:04:38.763Z,3.23
2016-11-15T01:05:38.718Z,3.21
2016-11-15T01:06:38.073Z,3.24
2016-11-15T01:07:38.634Z,3.24
2016-11-15T01:08:38.602Z,3.28
2016-11-15T01:09:38.251Z,3.4
2016-11-15T01:10:38.517Z,3.29
2016-11-15T01:11:38.469Z,3.33
2016-11-15T01:12:38.124Z,3.36
2016-11-15T01:13:38.087Z,3.29
2016-11-15T01:14:38.346Z,3.35
2016-11-15T01:15:38.299Z,3.33
2016-11-15T01:16:37.959Z,3.32
2016-11-15T01:17:37.919Z,3.35
2016-11-15T01:18:37.573Z,3.31
2016-11-15T01:19:38.137Z,3.33
2016-11-15T01:20:38.098Z,3.4
2016-11-15T01:21:37.765Z,3.39
2016-11-15T01:22:38.012Z,3.35
2016-11-15T01:23:37.672Z,3.39
2016-11-15T01:24:37.927Z,3.48
2016-11-15T01:25:37.887Z,3.4
2016-11-15T01:26:37.845Z,3.32
2016-11-15T01:27:37.805Z,3.45
2016-11-15T01:28:37.465Z,3.32
2016-11-15T01:29:37.424Z,3.33
2016-11-15T01:30:37.684Z,3.35
2016-11-15T01:31:37.639Z,3.43
2016-11-15T01:32:37.002Z,3.45
2016-11-15T01:33:36.949Z,3.43
2016-11-15T01:34:37.511Z,3.36
2016-11-15T01:35:37.173Z,3.39
2016-11-15T01:36:37.433Z,3.4
2016-11-15T01:37:37.394Z,3.39
2016-11-15T01:38:37.348Z,3.36
2016-11-15T01:39:37.309Z,3.39
2016-11-15T01:40:37.263Z,3.39
2016-11-15T01:41:37.222Z,3.42
2016-11-15T01:42:37.179Z,3.36
2016-11-15T01:43:37.138Z,3.42
2016-11-15T01:44:37.098Z,3.42
2016-11-15T01:45:37.055Z,3.36
2016-11-15T01:46:36.716Z,3.47
2016-11-15T01:47:36.978Z,3.42
2016-11-15T01:48:36.932Z,3.39
2016-11-15T01:49:36.892Z,3.35
2016-11-15T01:50:36.852Z,3.35
2016-11-15T01:51:36.810Z,3.33
2016-11-15T01:52:36.768Z,3.32
2016-11-15T01:53:36.724Z,3.35
2016-11-15T01:54:36.383Z,3.35
2016-11-15T01:55:36.338Z,3.29
2016-11-15T01:56:36.298Z,3.42
2016-11-15T01:57:36.563Z,3.35
2016-11-15T01:58:36.218Z,3.45
2016-11-15T01:59:36.479Z,3.32
2016-11-15T02:00:36.445Z,3.39
2016-11-15T02:01:36.089Z,3.33
2016-11-15T02:02:36.048Z,3.32
2016-11-15T02:03:36.309Z,3.33
2016-11-15T02:04:36.269Z,3.36
2016-11-15T02:05:36.226Z,3.35
2016-11-15T02:06:36.187Z,3.32
2016-11-15T02:07:36.175Z,3.35
2016-11-15T02:08:35.802Z,3.35
2016-11-15T02:09:35.759Z,3.4
2016-11-15T02:10:35.716Z,3.4
2016-11-15T02:11:35.676Z,3.33
2016-11-15T02:12:35.940Z,3.43
2016-11-15T02:13:35.898Z,3.35
2016-11-15T02:14:35.859Z,3.39
2016-11-15T02:15:35.811Z,3.39
2016-11-15T02:16:35.772Z,3.35
2016-11-15T02:17:35.425Z,3.36
2016-11-15T02:18:35.695Z,3.39
2016-11-15T02:19:35.649Z,3.36
2016-11-15T02:20:35.308Z,3.33
2016-11-15T02:21:35.562Z,3.39
2016-11-15T02:22:35.218Z,3.39
2016-11-15T02:23:35.179Z,3.35
2016-11-15T02:24:35.443Z,3.35
2016-11-15T02:25:35.401Z,3.39
2016-11-15T02:26:35.360Z,3.4
2016-11-15T02:27:35.015Z,3.39
2016-11-15T02:28:34.969Z,3.39
2016-11-15T02:29:35.225Z,3.4
2016-11-15T02:30:34.886Z,3.33
2016-11-15T02:31:35.158Z,3.36
2016-11-15T02:32:34.805Z,3.42
2016-11-15T02:33:35.070Z,3.45
2016-11-15T02:34:34.724Z,3.39
2016-11-15T02:35:34.678Z,3.39
2016-11-15T02:36:34.938Z,3.42
2016-11-15T02:37:34.595Z,3.35
2016-11-15T02:38:34.855Z,3.42
2016-11-15T02:39:34.513Z,3.39
2016-11-15T02:40:34.776Z,3.39
2016-11-15T02:41:34.729Z,3.36
2016-11-15T02:42:34.387Z,3.4
2016-11-15T02:43:34.646Z,3.43
2016-11-15T02:44:34.302Z,3.39
2016-11-15T02:45:34.273Z,3.42
2016-11-15T02:46:34.525Z,3.4
2016-11-15T02:47:34.521Z,3.4
2016-11-15T02:48:34.454Z,3.4
2016-11-15T02:49:34.399Z,3.48
2016-11-15T02:50:34.057Z,3.42
2016-11-15T02:51:34.320Z,3.5
2016-11-15T02:52:34.275Z,3.39
2016-11-15T02:53:34.232Z,3.43
2016-11-15T02:54:34.189Z,3.45
2016-11-15T02:55:34.148Z,3.39
2016-11-15T02:56:34.107Z,3.39
2016-11-15T02:57:34.068Z,3.43
2016-11-15T02:58:34.022Z,3.39
2016-11-15T02:59:33.980Z,3.42
2016-11-15T03:00:33.942Z,3.42
2016-11-15T03:01:33.905Z,3.35
2016-11-15T03:02:33.555Z,3.42
2016-11-15T03:03:33.212Z,3.45
2016-11-15T03:04:33.777Z,3.45
2016-11-15T03:05:33.734Z,3.47
2016-11-15T03:06:33.692Z,3.51
2016-11-15T03:07:33.654Z,3.45
2016-11-15T03:08:33.610Z,3.48
2016-11-15T03:09:33.268Z,3.48
2016-11-15T03:10:32.927Z,3.47
2016-11-15T03:11:33.482Z,3.43
2016-11-15T03:12:33.449Z,3.47
2016-11-15T03:13:33.100Z,3.47
2016-11-15T03:14:33.367Z,3.43
2016-11-15T03:15:33.320Z,3.55
2016-11-15T03:16:33.308Z,3.57
2016-11-15T03:17:33.272Z,3.45
2016-11-15T03:18:32.898Z,3.5
2016-11-15T03:19:33.156Z,3.5
2016-11-15T03:20:32.809Z,3.42
2016-11-15T03:21:33.102Z,3.47
2016-11-15T03:22:33.031Z,3.45
2016-11-15T03:23:32.682Z,3.43
2016-11-15T03:24:32.982Z,3.51
2016-11-15T03:25:32.907Z,3.5
2016-11-15T03:26:32.559Z,3.58
2016-11-15T03:27:32.821Z,3.52
2016-11-15T03:28:32.857Z,3.55
2016-11-15T03:29:32.792Z,3.57
2016-11-15T03:30:32.704Z,3.54
2016-11-15T03:31:32.352Z,3.57
2016-11-15T03:32:32.313Z,3.54
2016-11-15T03:33:32.271Z,3.54
2016-11-15T03:34:32.530Z,3.6
2016-11-15T03:35:32.488Z,3.55
2016-11-15T03:36:32.451Z,3.61
2016-11-15T03:37:32.110Z,3.6
2016-11-15T03:38:32.364Z,3.54
2016-11-15T03:39:31.719Z,3.6
2016-11-15T03:40:32.277Z,3.6
2016-11-15T03:41:31.937Z,3.6
2016-11-15T03:42:31.905Z,3.6
2016-11-15T03:43:31.856Z,3.6
2016-11-15T03:44:31.812Z,3.6
2016-11-15T03:45:32.075Z,3.57
2016-11-15T03:46:31.729Z,3.6
2016-11-15T03:47:31.993Z,3.52
2016-11-15T03:48:31.953Z,3.6
2016-11-15T03:49:31.907Z,3.58
2016-11-15T03:50:31.569Z,3.57
2016-11-15T03:51:31.226Z,3.6
2016-11-15T03:52:31.784Z,3.58
2016-11-15T03:53:31.446Z,3.66
2016-11-15T03:54:31.699Z,3.66
2016-11-15T03:55:31.358Z,3.57
2016-11-15T03:56:31.015Z,3.57
2016-11-15T03:57:31.581Z,3.6
2016-11-15T03:58:31.232Z,3.54
2016-11-15T03:59:31.202Z,3.6
2016-11-15T04:00:31.454Z,3.57
2016-11-15T04:01:31.414Z,3.61
2016-11-15T04:02:31.065Z,3.55
2016-11-15T04:03:31.368Z,3.66
2016-11-15T04:04:31.288Z,3.61
2016-11-15T04:05:31.247Z,3.57
2016-11-15T04:06:31.208Z,3.6
2016-11-15T04:07:30.861Z,3.58
2016-11-15T04:08:31.118Z,3.61
2016-11-15T04:09:31.084Z,3.54
2016-11-15T04:10:30.766Z,3.66
2016-11-15T04:11:30.696Z,3.66
2016-11-15T04:12:30.668Z,3.6
2016-11-15T04:13:30.311Z,3.65
2016-11-15T04:14:30.872Z,3.68
2016-11-15T04:15:30.833Z,3.61
2016-11-15T04:16:30.790Z,3.57
2016-11-15T04:17:30.145Z,3.58
2016-11-15T04:18:30.744Z,3.65
2016-11-15T04:19:30.373Z,3.7
2016-11-15T04:20:30.624Z,3.61
2016-11-15T04:21:30.283Z,3.73
2016-11-15T04:22:30.540Z,3.61
2016-11-15T04:23:30.507Z,3.75
2016-11-15T04:24:30.459Z,3.72
2016-11-15T04:25:30.113Z,3.65
2016-11-15T04:26:30.079Z,3.68
2016-11-15T04:27:30.365Z,3.61
2016-11-15T04:28:30.292Z,3.72
2016-11-15T04:29:29.947Z,3.65
2016-11-15T04:30:30.211Z,3.73
2016-11-15T04:31:30.167Z,3.68
2016-11-15T04:32:30.127Z,3.61
2016-11-15T04:33:29.786Z,3.72
2016-11-15T04:34:30.048Z,3.73
2016-11-15T04:35:30.005Z,3.61
2016-11-15T04:36:29.959Z,3.73
2016-11-15T04:37:29.920Z,3.6
2016-11-15T04:38:29.880Z,3.65
2016-11-15T04:39:29.840Z,3.66
2016-11-15T04:40:29.796Z,3.7
2016-11-15T04:41:29.474Z,3.72
2016-11-15T04:42:29.717Z,3.61
2016-11-15T04:43:29.370Z,3.73
2016-11-15T04:44:29.630Z,3.65
2016-11-15T04:45:29.589Z,3.73
2016-11-15T04:46:29.245Z,3.7
2016-11-15T04:47:29.513Z,3.76
2016-11-15T04:48:29.467Z,3.7
2016-11-15T04:49:29.426Z,3.7
2016-11-15T04:50:29.087Z,3.61
2016-11-15T04:51:29.347Z,3.75
2016-11-15T04:52:29.301Z,3.7
2016-11-15T04:53:28.969Z,3.75
2016-11-15T04:54:28.919Z,3.72
2016-11-15T04:55:29.175Z,3.73
2016-11-15T04:56:28.831Z,3.72
2016-11-15T04:57:29.098Z,3.76
2016-11-15T04:58:29.051Z,3.76
2016-11-15T04:59:28.707Z,3.76
2016-11-15T05:00:28.666Z,3.72
2016-11-15T05:01:28.929Z,3.79
2016-11-15T05:02:28.886Z,3.68
2016-11-15T05:03:28.847Z,3.72
2016-11-15T05:04:28.808Z,3.72
2016-11-15T05:05:28.802Z,3.78
2016-11-15T05:06:28.450Z,3.79
2016-11-15T05:07:28.678Z,3.7
2016-11-15T05:08:28.674Z,3.68
2016-11-15T05:09:28.293Z,3.75
2016-11-15T05:10:28.563Z,3.72
2016-11-15T05:11:28.217Z,3.72
2016-11-15T05:12:28.474Z,3.72
2016-11-15T05:13:28.426Z,3.72
2016-11-15T05:14:28.400Z,3.76
2016-11-15T05:15:28.348Z,3.78
2016-11-15T05:16:28.016Z,3.75
2016-11-15T05:17:27.963Z,3.78
2016-11-15T05:18:27.922Z,3.72
2016-11-15T05:19:28.183Z,3.79
2016-11-15T05:20:28.178Z,3.78
2016-11-15T05:21:27.800Z,3.69
2016-11-15T05:22:27.452Z,3.73
2016-11-15T05:23:28.020Z,3.69
2016-11-15T05:24:27.679Z,3.79
2016-11-15T05:25:27.332Z,3.7
2016-11-15T05:26:27.591Z,3.72
2016-11-15T05:27:27.855Z,3.72
2016-11-15T05:28:27.814Z,3.76
2016-11-15T05:29:27.170Z,3.73
2016-11-15T05:30:27.428Z,3.75
2016-11-15T05:31:27.388Z,3.75
2016-11-15T05:32:27.644Z,3.78
2016-11-15T05:33:27.600Z,3.7
2016-11-15T05:34:27.566Z,3.8
2016-11-15T05:35:27.519Z,3.73
2016-11-15T05:36:27.478Z,3.7
2016-11-15T05:37:27.438Z,3.78
2016-11-15T05:38:27.092Z,3.72
2016-11-15T05:39:27.361Z,3.7
2016-11-15T05:40:27.326Z,3.69
2016-11-15T05:41:26.972Z,3.73
2016-11-15T05:42:27.228Z,3.79
2016-11-15T05:43:27.195Z,3.68
2016-11-15T05:44:27.153Z,3.68
2016-11-15T05:45:27.111Z,3.76
2016-11-15T05:46:27.068Z,3.75
2016-11-15T05:47:26.724Z,3.73
2016-11-15T05:48:26.380Z,3.76
2016-11-15T05:49:26.940Z,3.75
2016-11-15T05:50:26.903Z,3.73
2016-11-15T05:51:26.892Z,3.78
2016-11-15T05:52:26.518Z,3.73
2016-11-15T05:53:26.777Z,3.69
2016-11-15T05:54:26.745Z,3.7
2016-11-15T05:55:26.699Z,3.62
2016-11-15T05:56:26.354Z,3.72
2016-11-15T05:57:26.611Z,3.6
2016-11-15T05:58:26.569Z,3.68
2016-11-15T05:59:26.535Z,3.55
2016-11-15T06:00:26.188Z,3.72
2016-11-15T06:01:26.147Z,3.57
2016-11-15T06:02:26.101Z,3.66
2016-11-15T06:03:26.062Z,3.54
2016-11-15T06:04:26.320Z,3.62
2016-11-15T06:05:25.976Z,3.62
2016-11-15T06:06:25.935Z,3.62
2016-11-15T06:07:25.894Z,3.66
2016-11-15T06:08:26.159Z,3.62
2016-11-15T06:09:25.817Z,3.66
2016-11-15T06:10:26.076Z,3.54
2016-11-15T06:11:26.032Z,3.62
2016-11-15T06:12:25.996Z,3.65
2016-11-15T06:13:25.953Z,3.6
2016-11-15T06:14:25.910Z,3.57
2016-11-15T06:15:25.576Z,3.6
2016-11-15T06:16:25.823Z,3.61
2016-11-15T06:17:25.494Z,3.61
2016-11-15T06:18:25.139Z,3.57
2016-11-15T06:19:25.399Z,3.61
2016-11-15T06:20:25.356Z,3.6
2016-11-15T06:21:25.620Z,3.6
2016-11-15T06:22:25.275Z,3.6
2016-11-15T06:23:25.229Z,3.6
2016-11-15T06:24:25.191Z,3.58
2016-11-15T06:25:25.456Z,3.58
2016-11-15T06:26:25.107Z,3.57
2016-11-15T06:27:25.065Z,3.6
2016-11-15T06:28:25.025Z,3.61
2016-11-15T06:29:24.982Z,3.61
2016-11-15T06:30:25.245Z,3.65
2016-11-15T06:31:25.206Z,3.61
2016-11-15T06:32:25.160Z,3.6
2016-11-15T06:33:25.121Z,3.58
2016-11-15T06:34:25.083Z,3.62
2016-11-15T06:35:24.739Z,3.61
2016-11-15T06:36:24.695Z,3.73
2016-11-15T06:37:24.654Z,3.61
2016-11-15T06:38:24.608Z,3.62
2016-11-15T06:39:24.872Z,3.61
2016-11-15T06:40:24.528Z,3.7
2016-11-15T06:41:24.789Z,3.69
2016-11-15T06:42:24.750Z,3.72
2016-11-15T06:43:24.404Z,3.79
2016-11-15T06:44:24.662Z,3.75
2016-11-15T06:45:24.325Z,3.72
2016-11-15T06:46:24.579Z,3.72
2016-11-15T06:47:24.241Z,3.72
2016-11-15T06:48:24.199Z,3.79
2016-11-15T06:49:24.157Z,3.7
2016-11-15T06:50:24.113Z,3.8
2016-11-15T06:51:24.386Z,3.8
2016-11-15T06:52:24.332Z,3.78
2016-11-15T06:53:24.294Z,3.84
2016-11-15T06:54:23.649Z,3.79
2016-11-15T06:55:23.910Z,3.83
2016-11-15T06:56:24.169Z,3.79
2016-11-15T06:57:23.861Z,3.93
2016-11-15T06:58:24.086Z,3.87
2016-11-15T06:59:23.442Z,3.84
2016-11-15T07:00:23.704Z,3.84
2016-11-15T07:01:23.960Z,3.94
2016-11-15T07:02:23.619Z,4
2016-11-15T07:03:23.883Z,3.96
2016-11-15T07:04:23.838Z,3.94
2016-11-15T07:05:23.494Z,3.98
2016-11-15T07:06:23.760Z,4
2016-11-15T07:07:23.407Z,4.02
2016-11-15T07:08:23.668Z,4.06
2016-11-15T07:09:23.637Z,4.09
2016-11-15T07:10:23.287Z,4.06
2016-11-15T07:11:23.560Z,3.98
2016-11-15T07:12:23.505Z,4.14
2016-11-15T07:13:23.464Z,4.14
2016-11-15T07:14:23.421Z,4.11
2016-11-15T07:15:23.379Z,4.05
2016-11-15T07:16:23.038Z,4.18
2016-11-15T07:17:23.304Z,4.14
2016-11-15T07:18:22.952Z,4.09
2016-11-15T07:19:22.610Z,4.12
2016-11-15T07:20:23.175Z,4.15
2016-11-15T07:21:22.832Z,4.22
2016-11-15T07:22:22.490Z,4.23
2016-11-15T07:23:22.477Z,4.26
2016-11-15T07:24:22.708Z,4.16
2016-11-15T07:25:22.663Z,4.23
2016-11-15T07:26:22.320Z,4.26
2016-11-15T07:27:22.590Z,4.2
2016-11-15T07:28:22.549Z,4.2
2016-11-15T07:29:22.533Z,4.3
2016-11-15T07:30:22.460Z,4.3
2016-11-15T07:31:22.117Z,4.34
2016-11-15T07:32:22.680Z,4.34
2016-11-15T07:33:22.338Z,4.48
2016-11-15T07:34:22.596Z,4.45
2016-11-15T07:35:22.256Z,4.4
2016-11-15T07:36:22.514Z,4.44
2016-11-15T07:37:22.470Z,4.48
2016-11-15T07:38:22.460Z,4.51
2016-11-15T07:39:22.385Z,4.55
2016-11-15T07:40:22.684Z,4.52
2016-11-15T07:41:22.312Z,4.55
2016-11-15T07:42:21.661Z,4.47
2016-11-15T07:43:22.222Z,4.52
2016-11-15T07:44:22.179Z,4.54
2016-11-15T07:45:22.155Z,4.65
2016-11-15T07:46:21.798Z,4.59
2016-11-15T07:47:21.760Z,4.66
2016-11-15T07:48:21.715Z,4.75
2016-11-15T07:49:21.982Z,4.67
2016-11-15T07:50:21.939Z,4.75
2016-11-15T07:51:21.898Z,4.77
2016-11-15T07:52:21.563Z,4.8
2016-11-15T07:53:21.817Z,4.96
2016-11-15T07:54:21.472Z,5.02
2016-11-15T07:55:21.734Z,5.07
2016-11-15T07:56:21.696Z,5.12
2016-11-15T07:57:21.352Z,5.22
2016-11-15T07:58:21.616Z,5.24
2016-11-15T07:59:21.581Z,5.3
2016-11-15T08:00:21.231Z,5.4
2016-11-15T08:01:21.188Z,5.42
2016-11-15T08:02:21.449Z,5.53
2016-11-15T08:03:21.414Z,5.58
2016-11-15T08:04:21.074Z,5.74
2016-11-15T08:05:21.027Z,5.74
2016-11-15T08:06:21.289Z,5.9
2016-11-15T08:07:21.254Z,6.03
2016-11-15T08:08:20.605Z,6.09
2016-11-15T08:09:21.173Z,6.21
2016-11-15T08:10:21.126Z,6.18
2016-11-15T08:11:20.787Z,6.48
2016-11-15T08:12:21.053Z,6.52
2016-11-15T08:13:21.013Z,6.74
2016-11-15T08:14:20.672Z,6.88
2016-11-15T08:15:20.928Z,6.99
2016-11-15T08:16:20.887Z,7.32
2016-11-15T08:17:20.550Z,7.48
2016-11-15T08:18:20.205Z,7.87
2016-11-15T08:19:20.771Z,8.33
2016-11-15T08:20:20.758Z,9.1
2016-11-15T08:21:20.392Z,10.08
2016-11-15T08:22:20.349Z,11
2016-11-15T08:23:20.319Z,12.01
2016-11-15T08:24:20.587Z,12.79
2016-11-15T08:25:20.541Z,13.39
2016-11-15T08:26:20.509Z,13.51
2016-11-15T08:27:20.471Z,13.33
2016-11-15T08:28:20.436Z,13.03
2016-11-15T08:29:20.090Z,12.82
2016-11-15T08:30:20.354Z,12.52
2016-11-15T08:31:20.321Z,12.13
2016-11-15T08:32:20.280Z,11.83
2016-11-15T08:33:19.942Z,11.52
2016-11-15T08:34:20.210Z,11.28
2016-11-15T08:35:20.179Z,10.99
2016-11-15T08:36:19.838Z,10.78
2016-11-15T08:37:19.496Z,10.68
2016-11-15T08:38:19.764Z,10.59
2016-11-15T08:39:20.030Z,10.64
2016-11-15T08:40:19.998Z,10.68
2016-11-15T08:41:19.957Z,10.6
2016-11-15T08:42:19.926Z,10.41
2016-11-15T08:43:19.888Z,10.12
2016-11-15T08:44:19.557Z,10.05
2016-11-15T08:45:19.520Z,9.81
2016-11-15T08:46:19.477Z,9.65
2016-11-15T08:47:19.741Z,9.53
2016-11-15T08:48:19.708Z,9.42
2016-11-15T08:49:19.368Z,9.38
2016-11-15T08:50:19.634Z,9.23
2016-11-15T08:51:19.299Z,9.2
2016-11-15T08:52:19.559Z,8.95
2016-11-15T08:53:19.517Z,8.99
2016-11-15T08:54:19.488Z,8.87
2016-11-15T08:55:19.155Z,8.74
2016-11-15T08:56:19.409Z,8.7
2016-11-15T08:57:19.375Z,8.63
2016-11-15T08:58:19.336Z,8.56
2016-11-15T08:59:19.297Z,8.53
2016-11-15T09:00:19.264Z,8.45
2016-11-15T09:01:18.923Z,8.41
2016-11-15T09:02:18.878Z,8.47
2016-11-15T09:03:18.844Z,8.41
2016-11-15T09:04:18.925Z,8.38
2016-11-15T09:05:19.091Z,8.34
2016-11-15T09:06:19.035Z,8.3
2016-11-15T09:07:18.696Z,8.29
2016-11-15T09:08:18.961Z,8.47
2016-11-15T09:09:18.922Z,8.5
2016-11-15T09:10:18.584Z,8.73
2016-11-15T09:11:18.851Z,9.04
2016-11-15T09:12:18.808Z,9.23
2016-11-15T09:13:18.768Z,9.46
2016-11-15T09:14:18.427Z,9.75
2016-11-15T09:15:18.398Z,9.97
2016-11-15T09:16:18.658Z,10.15
2016-11-15T09:17:18.624Z,10.4
2016-11-15T09:18:18.275Z,10.47
2016-11-15T09:19:18.246Z,10.48
2016-11-15T09:20:18.510Z,10.59
2016-11-15T09:21:18.472Z,10.67
2016-11-15T09:22:18.132Z,10.84
2016-11-15T09:23:17.793Z,10.91
2016-11-15T09:24:18.065Z,10.92
2016-11-15T09:25:18.027Z,10.92
2016-11-15T09:26:18.286Z,10.78
2016-11-15T09:27:17.952Z,10.73
2016-11-15T09:28:18.210Z,10.63
2016-11-15T09:29:17.872Z,10.52
2016-11-15T09:30:18.145Z,10.3
2016-11-15T09:31:18.107Z,10.25
2016-11-15T09:32:18.070Z,10.15
2016-11-15T09:33:18.035Z,10.17
2016-11-15T09:34:17.690Z,10.12
2016-11-15T09:35:17.655Z,10.23
2016-11-15T09:36:17.919Z,10.07
2016-11-15T09:37:17.883Z,10.07
2016-11-15T09:38:17.573Z,10.05
2016-11-15T09:39:17.809Z,10.01
2016-11-15T09:40:17.479Z,10.05
2016-11-15T09:41:17.739Z,10.14
2016-11-15T09:42:17.700Z,10.27
2016-11-15T09:43:17.362Z,10.41
2016-11-15T09:44:18.134Z,10.74
2016-11-15T09:45:16.990Z,11.15
2016-11-15T09:46:17.552Z,11.69
2016-11-15T09:47:17.219Z,12.46
2016-11-15T09:48:17.177Z,13.51
2016-11-15T09:49:17.443Z,14.1
2016-11-15T09:50:17.111Z,14.6
2016-11-15T09:51:17.373Z,14.88
2016-11-15T09:52:17.344Z,14.84
2016-11-15T09:53:17.306Z,14.61
2016-11-15T09:54:17.274Z,14.28
2016-11-15T09:55:17.243Z,13.99
2016-11-15T09:56:17.207Z,13.7
2016-11-15T09:57:17.168Z,13.45
2016-11-15T09:58:16.838Z,13.14
2016-11-15T09:59:17.103Z,12.92
2016-11-15T10:00:17.066Z,12.53
2016-11-15T10:01:17.034Z,12.32
2016-11-15T10:02:17.000Z,12.09
2016-11-15T10:03:16.660Z,11.86
2016-11-15T10:04:16.322Z,11.8
2016-11-15T10:05:16.593Z,11.46
2016-11-15T10:06:16.567Z,11.36
2016-11-15T10:07:16.866Z,11.29
2016-11-15T10:08:16.484Z,11.15
2016-11-15T10:09:16.452Z,11.1
2016-11-15T10:10:16.420Z,11.03
2016-11-15T10:11:16.695Z,10.97
2016-11-15T10:12:16.346Z,10.97
2016-11-15T10:13:16.310Z,11
2016-11-15T10:14:16.579Z,11.06
2016-11-15T10:15:16.546Z,11.24
2016-11-15T10:16:16.211Z,11.64
2016-11-15T10:17:16.171Z,12.02
2016-11-15T10:18:16.432Z,12.72
2016-11-15T10:19:16.398Z,13.1
2016-11-15T10:20:16.373Z,13.42
2016-11-15T10:21:16.327Z,13.77
2016-11-15T10:22:16.002Z,14.47
2016-11-15T10:23:16.291Z,15.21
2016-11-15T10:24:16.227Z,15.75
2016-11-15T10:25:15.889Z,16
2016-11-15T10:26:16.179Z,16.25
2016-11-15T10:27:15.822Z,16.31
2016-11-15T10:28:16.090Z,16.34
2016-11-15T10:29:16.059Z,16.12
2016-11-15T10:30:15.727Z,15.76
2016-11-15T10:31:15.691Z,15.62
2016-11-15T10:32:15.959Z,15.19
2016-11-15T10:33:15.928Z,14.94
2016-11-15T10:34:15.289Z,14.58
2016-11-15T10:35:15.860Z,14.22
2016-11-15T10:36:15.831Z,13.89
2016-11-15T10:37:15.804Z,13.66
2016-11-15T10:38:15.763Z,13.54
2016-11-15T10:39:15.731Z,13.42
2016-11-15T10:40:15.696Z,13.17
2016-11-15T10:41:15.662Z,13.05
2016-11-15T10:42:15.627Z,12.96
2016-11-15T10:43:15.295Z,12.79
2016-11-15T10:44:15.260Z,12.74
2016-11-15T10:45:15.225Z,12.59
2016-11-15T10:46:15.492Z,12.47
2016-11-15T10:47:15.157Z,12.41
2016-11-15T10:48:15.433Z,12.31
2016-11-15T10:49:15.393Z,12.14
2016-11-15T10:50:15.055Z,12.07
2016-11-15T10:51:15.329Z,12.09
2016-11-15T10:52:14.686Z,11.99
2016-11-15T10:53:15.254Z,11.95
2016-11-15T10:54:14.914Z,11.82
2016-11-15T10:55:15.187Z,11.65
2016-11-15T10:56:14.844Z,11.62
2016-11-15T10:57:14.814Z,11.6
2016-11-15T10:58:15.081Z,11.6
2016-11-15T10:59:14.744Z,11.58
2016-11-15T11:00:14.404Z,11.47
2016-11-15T11:01:14.975Z,11.51
2016-11-15T11:02:14.937Z,11.44
2016-11-15T11:03:14.904Z,11.42
2016-11-15T11:04:14.568Z,11.39
2016-11-15T11:05:14.537Z,11.36
2016-11-15T11:06:14.196Z,11.32
2016-11-15T11:07:14.465Z,11.32
2016-11-15T11:08:14.725Z,11.21
2016-11-15T11:09:14.391Z,11.09
2016-11-15T11:10:14.657Z,11.02
2016-11-15T11:11:14.016Z,10.88
2016-11-15T11:12:14.591Z,10.68
2016-11-15T11:13:14.559Z,10.52
2016-11-15T11:14:13.912Z,10.45
2016-11-15T11:15:14.480Z,10.42
2016-11-15T11:16:14.450Z,10.34
2016-11-15T11:17:14.407Z,10.18
2016-11-15T11:18:14.372Z,10.14
2016-11-15T11:19:14.028Z,10.15
2016-11-15T11:20:14.296Z,10.07
2016-11-15T11:21:13.972Z,10.05
2016-11-15T11:22:14.222Z,10.11
2016-11-15T11:23:14.195Z,10.02
2016-11-15T11:24:14.158Z,10.02
2016-11-15T11:25:13.812Z,10.11
2016-11-15T11:26:14.078Z,10.05
2016-11-15T11:27:13.737Z,10.04
2016-11-15T11:28:14.006Z,10.04
2016-11-15T11:29:13.665Z,10.11
2016-11-15T11:30:13.930Z,10.11
2016-11-15T11:31:13.905Z,10.05
2016-11-15T11:32:13.561Z,10.07
2016-11-15T11:33:13.820Z,10.05
2016-11-15T11:34:13.784Z,10.07
2016-11-15T11:35:13.754Z,10.22
2016-11-15T11:36:13.409Z,10.22
2016-11-15T11:37:13.371Z,10.3
2016-11-15T11:38:13.335Z,10.41
2016-11-15T11:39:13.299Z,10.42
2016-11-15T11:40:13.563Z,10.53
2016-11-15T11:41:13.528Z,10.48
2016-11-15T11:42:13.190Z,10.55
2016-11-15T11:43:13.451Z,10.52
2016-11-15T11:44:13.417Z,10.55
2016-11-15T11:45:13.378Z,10.61
2016-11-15T11:46:13.052Z,10.63
2016-11-15T11:47:12.700Z,10.6
2016-11-15T11:48:13.297Z,10.52
2016-11-15T11:49:12.930Z,10.48
2016-11-15T11:50:12.894Z,10.36
2016-11-15T11:51:13.163Z,10.3
2016-11-15T11:52:13.125Z,10.26
2016-11-15T11:53:13.086Z,10.14
2016-11-15T11:54:12.754Z,10.15
2016-11-15T11:55:13.012Z,10.2
2016-11-15T11:56:12.990Z,10.15
2016-11-15T11:57:12.944Z,10.08
2016-11-15T11:58:12.601Z,10.14
2016-11-15T11:59:12.865Z,10.04
2016-11-15T12:00:12.827Z,10.02
2016-11-15T12:01:12.797Z,10.01
2016-11-15T12:02:12.448Z,10.08
2016-11-15T12:03:12.723Z,10.07
2016-11-15T12:04:12.089Z,10.12
2016-11-15T12:05:12.644Z,10.07
2016-11-15T12:06:12.610Z,10.18
2016-11-15T12:07:12.579Z,10.15
2016-11-15T12:08:12.540Z,10.25
2016-11-15T12:09:12.504Z,10.26
2016-11-15T12:10:12.461Z,10.29
2016-11-15T12:11:12.424Z,10.3
2016-11-15T12:12:12.085Z,10.3
2016-11-15T12:13:12.356Z,10.34
2016-11-15T12:14:12.312Z,10.32
2016-11-15T12:15:11.978Z,10.44
2016-11-15T12:16:11.935Z,10.42
2016-11-15T12:17:11.904Z,10.42
2016-11-15T12:18:12.160Z,10.48
2016-11-15T12:19:12.135Z,10.52
2016-11-15T12:20:11.486Z,10.56
2016-11-15T12:21:12.054Z,10.61
2016-11-15T12:22:12.020Z,10.55
2016-11-15T12:23:11.677Z,10.52
2016-11-15T12:24:11.945Z,10.67
2016-11-15T12:25:11.608Z,10.59
2016-11-15T12:26:11.873Z,10.6
2016-11-15T12:27:11.529Z,10.48
2016-11-15T12:28:11.804Z,10.47
2016-11-15T12:29:11.458Z,10.33
2016-11-15T12:30:11.429Z,10.26
2016-11-15T12:31:11.685Z,10.17
2016-11-15T12:32:11.650Z,10.17
2016-11-15T12:33:11.615Z,10.15
2016-11-15T12:34:11.578Z,10.25
2016-11-15T12:35:11.541Z,10.15
2016-11-15T12:36:11.879Z,10.08
2016-11-15T12:37:11.471Z,10.07
2016-11-15T12:38:11.427Z,10.18
2016-11-15T12:39:11.394Z,10.07
2016-11-15T12:40:11.053Z,10.23
2016-11-15T12:41:11.022Z,10.12
2016-11-15T12:42:11.286Z,10.09
2016-11-15T12:43:11.242Z,9.96
2016-11-15T12:44:11.219Z,9.99
2016-11-15T12:45:10.873Z,9.91
2016-11-15T12:46:11.135Z,9.93
2016-11-15T12:47:11.429Z,9.9
2016-11-15T12:48:11.059Z,9.89
2016-11-15T12:49:11.023Z,9.84
2016-11-15T12:50:10.987Z,9.68
2016-11-15T12:51:10.954Z,9.53
2016-11-15T12:52:10.608Z,9.56
2016-11-15T12:53:10.581Z,9.47
2016-11-15T12:54:10.837Z,9.39
2016-11-15T12:55:10.800Z,9.32
2016-11-15T12:56:10.765Z,9.29
2016-11-15T12:57:10.725Z,9.28
2016-11-15T12:58:10.692Z,9.26
2016-11-15T12:59:10.354Z,9.15
2016-11-15T13:00:10.332Z,9.13
2016-11-15T13:01:10.575Z,8.98
2016-11-15T13:02:10.240Z,9.04
2016-11-15T13:03:10.197Z,8.8
2016-11-15T13:04:10.157Z,8.5
2016-11-15T13:05:10.124Z,8.34
2016-11-15T13:06:10.084Z,8.18
2016-11-15T13:07:10.045Z,8.16
2016-11-15T13:08:10.309Z,8.2
2016-11-15T13:09:09.670Z,8.18
2016-11-15T13:10:09.994Z,8.16
2016-11-15T13:11:09.900Z,8.11
2016-11-15T13:12:10.158Z,7.98
2016-11-15T13:13:10.121Z,8.12
2016-11-15T13:14:10.082Z,8.12
2016-11-15T13:15:10.049Z,8.16